LiveFlight Tracker CHF511





Flight Info CHF511



Flight: CHF511 PIC: Xinshun Wu
Departure: ZYTL Arrival: ZSAM
Registration: B-5290 Aircraft: BOEING 737
Current Alt: 0 FT GS: 0 KT
Last Info: 2017-07-17 06:59:44
Distance: 0 NM Status: Arrived


ACARS Info CHF511



Pilot Flight Time ALT GS Latitude Longitude
CSN756 CHF511 2017-07-17 06:59:44 0 0 24.5386207857369 118.124893463149
CSN756 CHF511 2017-07-17 06:58:23 0 10 24.5389893301742 118.124606162142
CSN756 CHF511 2017-07-17 06:56:22 0 0 24.5423390965107 118.12445256047
CSN756 CHF511 2017-07-17 06:54:21 131 138 24.5535274602774 118.139737458879
CSN756 CHF511 2017-07-17 06:52:20 2169 241 24.6171917923756 118.232288487385
CSN756 CHF511 2017-07-17 06:50:20 6555 212 24.7278518567854 118.255272657015
CSN756 CHF511 2017-07-17 06:48:17 6834 233 24.8258455846654 118.311967389018
CSN756 CHF511 2017-07-17 06:46:16 7940 270 24.9294085925982 118.429908912784
CSN756 CHF511 2017-07-17 06:44:16 10108 280 25.0327366854527 118.548467738257
CSN756 CHF511 2017-07-17 06:42:14 12178 295 25.1466350638342 118.681029376207
CSN756 CHF511 2017-07-17 06:40:13 14944 348 25.2693179965841 118.825612239937
CSN756 CHF511 2017-07-17 06:38:13 18054 360 25.4059055159468 118.987483736514
CSN756 CHF511 2017-07-17 06:31:11 30594 395 25.9773905381396 119.465572992975
CSN756 CHF511 2017-07-17 06:29:10 34026 435 26.1926900099886 119.539370659397
CSN756 CHF511 2017-07-17 06:27:09 34035 467 26.4159311707799 119.685560644062
CSN756 CHF511 2017-07-17 06:25:09 34042 459 26.6360001234849 119.840590371997
CSN756 CHF511 2017-07-17 06:23:07 34065 445 26.8531369891577 119.994311530805
CSN756 CHF511 2017-07-17 06:21:06 34065 445 27.0642269735938 120.143961884302
CSN756 CHF511 2017-07-17 06:19:05 34072 445 27.2753685787586 120.293112913488
CSN756 CHF511 2017-07-17 06:17:04 34072 445 27.4867015357685 120.443008945955
CSN756 CHF511 2017-07-17 06:15:03 34072 445 27.6989390396753 120.593335010871
CSN756 CHF511 2017-07-17 06:08:03 33970 465 28.5721511255038 120.711424913551
CSN756 CHF511 2017-07-17 06:06:02 33970 465 28.8319390754508 120.737363907551
CSN756 CHF511 2017-07-17 06:04:01 33970 467 29.0924322631919 120.764074091741
CSN756 CHF511 2017-07-17 06:02:01 33967 467 29.3549404304223 120.791252178149
CSN756 CHF511 2017-07-17 05:59:58 33970 467 29.6150216355962 120.818143267401
CSN756 CHF511 2017-07-17 05:57:57 33963 465 29.8757187402727 120.843571661761
CSN756 CHF511 2017-07-17 05:55:56 33967 461 30.0952080440234 120.970682175487
CSN756 CHF511 2017-07-17 05:53:55 33973 461 30.2489409838617 121.208576039342
CSN756 CHF511 2017-07-17 05:51:54 34012 461 30.3913890886036 121.457752157114
CSN756 CHF511 2017-07-17 05:49:54 34032 459 30.5328343546945 121.707895807512
CSN756 CHF511 2017-07-17 05:47:52 34052 459 30.6736165162931 121.958365556021
CSN756 CHF511 2017-07-17 05:45:51 34052 467 30.8312193195068 122.191468705559
CSN756 CHF511 2017-07-17 05:38:51 34052 470 31.6922896676834 122.338375509059
CSN756 CHF511 2017-07-17 05:36:49 34052 470 31.9404902382776 122.223722717866
CSN756 CHF511 2017-07-17 05:34:48 34039 470 32.1869063737563 122.111748463958
CSN756 CHF511 2017-07-17 05:32:47 34039 470 32.43540689872 121.998246380504
CSN756 CHF511 2017-07-17 05:25:46 34032 470 33.2903145575513 121.601069036045
CSN756 CHF511 2017-07-17 05:23:46 34042 470 33.536189722638 121.474685972608
CSN756 CHF511 2017-07-17 05:21:43 34009 472 33.7829018052229 121.352481051013
CSN756 CHF511 2017-07-17 05:19:40 34003 472 34.0293614554151 121.235225265286
CSN756 CHF511 2017-07-17 05:17:39 33970 470 34.2756086157733 121.117421491972
CSN756 CHF511 2017-07-17 05:15:39 33967 470 34.5207237804645 120.999392341235
CSN756 CHF511 2017-07-17 05:13:37 33944 468 34.7651076366202 120.880900365505
CSN756 CHF511 2017-07-17 05:11:36 33934 467 35.0086496841516 120.76247920193
CSN756 CHF511 2017-07-17 05:07:56 33937 467 35.4510518614878 120.547995172018
CSN756 CHF511 2017-07-17 05:05:55 33944 467 35.6943498359617 120.42911859849
CSN756 CHF511 2017-07-17 05:03:54 33944 465 35.9376793069166 120.310780418923
CSN756 CHF511 2017-07-17 05:01:52 33944 453 36.1948496310905 120.345988771088
CSN756 CHF511 2017-07-17 04:59:50 33944 457 36.4512212036375 120.374971271898
CSN756 CHF511 2017-07-17 04:57:48 33947 455 36.7080137581354 120.404250764403
CSN756 CHF511 2017-07-17 04:55:45 33953 455 36.9619317213444 120.441827757386
CSN756 CHF511 2017-07-17 04:53:45 33960 455 37.2196825266992 120.479386456285
CSN756 CHF511 2017-07-17 04:51:41 33967 455 37.4758123281731 120.516654211777
CSN756 CHF511 2017-07-17 04:49:39 32815 449 37.7275210821096 120.564301733792
CSN756 CHF511 2017-07-17 04:47:39 30367 453 37.9750286174292 120.636333819629
CSN756 CHF511 2017-07-17 04:45:37 28130 451 38.2224139448692 120.713757365744
CSN756 CHF511 2017-07-17 04:43:35 25669 447 38.3883360023815 120.951302707602
CSN756 CHF511 2017-07-17 04:41:35 22657 435 38.5400567481571 121.203004490989
CSN756 CHF511 2017-07-17 04:39:33 19216 412 38.7485935812431 121.346062900302
CSN756 CHF511 2017-07-17 04:37:32 15016 389 38.9484223159733 121.477556521624
CSN756 CHF511 2017-07-17 04:35:31 11266 321 39.0480684386247 121.662432867494
CSN756 CHF511 2017-07-17 04:33:30 6132 259 38.9570500490409 121.719847661438
CSN756 CHF511 2017-07-17 04:31:29 1621 159 38.963279916557 121.566423279212
CSN756 CHF511 2017-07-17 04:29:28 0 10 38.9668515727655 121.519556939776
CSN756 CHF511 2017-07-17 04:27:27 0 12 38.9647226635337 121.525275660833
CSN756 CHF511 2017-07-17 04:25:25 0 10 38.9640217059632 121.533266373227
CSN756 CHF511 2017-07-17 04:18:25 0 0 38.9624730035356 121.535550155019
CSN756 CHF511 2017-07-17 04:16:25 0 0 38.9624730035356 121.535550155019